Westover, New York
Current Conditions -  °F | °C
As of 2:53 AM on Sunday 26 Oct 2014 (Local Time) from KBGM Reporting Station
Few Clouds Few Clouds  
Wind Chill: 39°   Ceiling: Unl
Heat Index: 44°   Visibility: 10mi
Dew Point: 41°   Wind: 9mph
Humidity: 89%   Direction: 270°W
Pressure: 29.6"   Gusts: NA
Location:  42.1768°N, 76.0035°W
Report Text: KBGM 260653Z AUTO 27008KT 10SM FEW027 07/05 A2960 RMK AO2 SLP023 T00670050
Loading
Personal Weather Stations






























Interactive Weather Map
Tropical Storm Tracking
New forecast layout! Learn more

10-Day Weather Forecast

Advertisements
Track Severe Weather on mobile